Pagina principale
METAR-TAF:

METAR-TAF

Aeroporti :

Aeroporto di Debrecen

Debrecen, Ungheria

latitudine: 47-29N, longitudine: 021-36E, altezza: 108 m

Osservazione

Il bollettino è stato emesso 52 minuti fa, alle 23:15 UTC
Vento 6 kt da nord-est
Temperature 18°C
Umidità 73%
Pressione 1019 hPa
Visibilità 10 km o più
nessuna nube inferiore a 1500 m e nessun cumulonembo

METAR: LHDC 202315Z AUTO 05006KT CAVOK 18/13 Q1019 NOSIG

Ora: 02:07 (00:07 UTC)

Previsione

Il bollettino è stato emesso 52 minuti fa, alle 23:15 UTC
Previsione valida dal 21 alle 00 UTC al 21 alle 09 UTC
Vento 5 kt da nord-est
Visibilità 10 km o più
nessuna nube inferiore a 1500 m e nessun cumulonembo

TAF: LHDC 202315Z 2100/2109 05005KT CAVOK

Osservazioni e previsioni meteorologiche di più di 4000 aeroporti (messaggi METAR e TAF).

Le stazioni disponibili sono rappresentate dai dischi gialli e rossi sulla carta.

Puntare il mouse per vedere il nome della stazione.

Clicca sopra per visualizzare le osservazioni e previsioni meteorologiche.

Per cambiare la mappa : fare clic sui pulsanti verdi con una croce nera per ingrandire, il pulsante verde con un trattino per diminuire, o sulla freccia verde per le mappe adiacenti.


METAR-TAF: